Time;durP1;ratioP1;P1;durP2;ratioP2;P2;SDS_P1;SDS_P2;PMS_P1;PMS_P2;Temp;Humidity;BMP_temperature;BMP_pressure;BME280_temperature;BME280_humidity;BME280_pressure;Samples;Min_cycle;Max_cycle;Signal;HPM_P1;HPM_P2
2022/08/20 00:00:38;;;;;;;15.32;13.82;;;19.30;99.90;;;;;;5089474;27;20051;-80
2022/08/20 00:03:17;;;;;;;15.45;13.98;;;19.30;99.90;;;;;;5108499;27;20042;-80
2022/08/20 00:06:18;;;;;;;22.73;19.08;;;19.30;99.90;;;;;;5113835;27;20047;-80
2022/08/20 00:08:45;;;;;;;14.48;12.02;;;19.30;99.90;;;;;;5097049;27;20713;-80
2022/08/20 00:11:14;;;;;;;14.40;12.93;;;19.30;99.90;;;;;;5118361;27;20058;-80
2022/08/20 00:13:46;;;;;;;23.80;18.98;;;19.30;99.90;;;;;;5103456;27;20043;-80
2022/08/20 00:16:21;;;;;;;11.02;10.10;;;19.20;99.90;;;;;;5113346;27;20111;-80
2022/08/20 00:18:50;;;;;;;14.80;12.82;;;19.20;99.90;;;;;;5113434;27;20045;-81
2022/08/20 00:21:18;;;;;;;19.40;16.30;;;19.20;99.90;;;;;;5075873;27;20038;-80
2022/08/20 00:23:47;;;;;;;11.80;10.70;;;19.20;99.90;;;;;;5087255;27;20075;-80
2022/08/20 00:26:13;;;;;;;12.90;11.65;;;19.20;99.90;;;;;;5105081;27;20110;-80
2022/08/20 00:28:39;;;;;;;12.13;11.02;;;19.20;99.90;;;;;;5097441;27;20043;-84
2022/08/20 00:31:11;;;;;;;31.15;20.98;;;19.20;99.90;;;;;;5089460;27;20054;-80
2022/08/20 00:33:37;;;;;;;30.42;19.80;;;19.20;99.90;;;;;;5119789;27;20402;-81
2022/08/20 00:36:08;;;;;;;23.80;19.00;;;19.20;99.90;;;;;;5068061;27;20740;-80
2022/08/20 00:38:36;;;;;;;24.35;18.10;;;19.10;99.90;;;;;;5115297;27;20402;-80
2022/08/20 00:41:03;;;;;;;55.03;26.65;;;19.10;99.90;;;;;;5081041;27;20039;-80
2022/08/20 00:43:43;;;;;;;17.60;15.82;;;19.10;99.90;;;;;;5101564;27;20130;-79
2022/08/20 00:46:35;;;;;;;16.90;15.20;;;19.10;99.90;;;;;;5099358;27;20054;-81
2022/08/20 00:49:07;;;;;;;29.90;19.20;;;19.00;99.90;;;;;;5103727;27;20075;-80
2022/08/20 00:51:53;;;;;;;13.40;12.20;;;18.90;99.90;;;;;;5096654;27;20035;-81
2022/08/20 00:54:42;;;;;;;20.40;16.42;;;18.90;99.90;;;;;;5102189;27;20067;-80
2022/08/20 00:57:33;;;;;;;16.63;13.85;;;18.90;99.90;;;;;;5109212;27;20040;-81
2022/08/20 01:00:01;;;;;;;13.07;11.75;;;18.80;99.90;;;;;;5096745;27;20043;-81
2022/08/20 01:02:30;;;;;;;12.02;10.88;;;18.80;99.90;;;;;;5078830;27;20642;-81
2022/08/20 01:04:56;;;;;;;14.63;12.27;;;18.80;99.90;;;;;;5094483;27;20062;-81
2022/08/20 01:07:31;;;;;;;13.77;11.60;;;18.80;99.90;;;;;;5076999;27;20087;-80
2022/08/20 01:10:03;;;;;;;11.45;10.27;;;18.70;99.90;;;;;;5095440;27;20043;-81
2022/08/20 01:12:29;;;;;;;15.85;13.13;;;18.80;99.90;;;;;;5102582;27;20453;-81
2022/08/20 01:15:03;;;;;;;12.63;10.57;;;18.70;99.90;;;;;;5117872;27;20671;-81
2022/08/20 01:17:32;;;;;;;14.20;12.52;;;18.70;99.90;;;;;;5108494;27;20035;-80
2022/08/20 01:20:09;;;;;;;16.42;13.02;;;18.70;99.90;;;;;;5078488;27;20142;-80
2022/08/20 01:25:45;;;;;;;15.45;12.75;;;18.70;99.90;;;;;;5115002;27;20133;-80
2022/08/20 01:28:13;;;;;;;16.10;13.55;;;18.60;99.90;;;;;;5091458;27;20845;-80
2022/08/20 01:30:42;;;;;;;26.67;17.08;;;18.60;99.90;;;;;;5080230;28;20054;-80
2022/08/20 01:33:08;;;;;;;34.25;19.38;;;18.60;99.90;;;;;;5075531;27;20047;-81
2022/08/20 01:35:38;;;;;;;35.22;17.02;;;18.60;99.90;;;;;;5103594;27;20055;-80
2022/08/20 01:38:05;;;;;;;18.02;14.73;;;18.60;99.90;;;;;;5099810;28;20080;-80
2022/08/20 01:41:06;;;;;;;17.02;13.30;;;18.50;99.90;;;;;;5097101;28;20035;-80
2022/08/20 01:43:32;;;;;;;15.02;12.02;;;18.50;99.90;;;;;;5103499;27;20065;-80
2022/08/20 01:45:58;;;;;;;16.42;13.88;;;18.50;99.90;;;;;;5065667;27;20501;-80
2022/08/20 01:48:24;;;;;;;14.43;11.50;;;18.40;99.90;;;;;;5097409;28;20449;-80
2022/08/20 01:51:03;;;;;;;19.30;15.40;;;18.50;99.90;;;;;;5066150;27;20093;-80
2022/08/20 01:53:41;;;;;;;13.55;12.20;;;18.40;99.90;;;;;;5091896;27;20043;-83
2022/08/20 01:56:12;;;;;;;18.40;12.40;;;18.40;99.90;;;;;;5097432;27;20644;-83
2022/08/20 01:58:42;;;;;;;22.75;15.73;;;18.40;99.90;;;;;;5110540;27;20498;-83
2022/08/20 02:01:22;;;;;;;12.88;10.25;;;18.40;99.90;;;;;;5095252;27;20042;-82
2022/08/20 02:03:48;;;;;;;17.70;11.88;;;18.40;99.90;;;;;;5103468;27;20075;-82
2022/08/20 02:06:15;;;;;;;14.18;9.48;;;18.30;99.90;;;;;;5084629;28;20046;-84
2022/08/20 02:08:41;;;;;;;12.07;10.02;;;18.30;99.90;;;;;;5096993;27;20049;-83
2022/08/20 02:11:07;;;;;;;13.82;9.55;;;18.30;99.90;;;;;;5070685;27;20043;-83
2022/08/20 02:13:33;;;;;;;14.32;11.60;;;18.30;99.90;;;;;;5077697;28;20127;-83
2022/08/20 02:15:59;;;;;;;13.40;9.20;;;18.20;99.90;;;;;;5075290;27;20613;-83
2022/08/20 02:18:25;;;;;;;18.17;12.93;;;18.20;99.90;;;;;;5090952;27;20042;-82
2022/08/20 02:20:57;;;;;;;12.32;11.10;;;18.20;99.90;;;;;;5080982;27;20039;-83
2022/08/20 02:23:23;;;;;;;11.60;10.40;;;18.20;99.90;;;;;;5093377;27;23179;-80
2022/08/20 02:25:50;;;;;;;32.88;18.77;;;18.10;99.90;;;;;;5075231;27;20092;-80
2022/08/20 02:28:19;;;;;;;23.93;13.83;;;18.10;99.90;;;;;;5094482;27;20122;-80
2022/08/20 02:30:49;;;;;;;17.20;13.40;;;18.10;99.90;;;;;;5093304;28;20426;-80
2022/08/20 02:33:18;;;;;;;12.88;9.55;;;18.10;99.90;;;;;;5120472;27;20134;-80
2022/08/20 02:35:48;;;;;;;13.88;12.10;;;18.10;99.90;;;;;;5115859;27;20055;-80
2022/08/20 02:38:14;;;;;;;20.10;14.50;;;18.10;99.90;;;;;;5108496;27;20058;-80
2022/08/20 02:40:43;;;;;;;39.85;20.00;;;18.10;99.90;;;;;;5123660;27;20753;-80
2022/08/20 02:43:11;;;;;;;21.85;16.63;;;18.00;99.90;;;;;;5102734;28;20409;-80
2022/08/20 02:45:42;;;;;;;21.20;16.63;;;18.00;99.90;;;;;;5098051;28;20043;-80
2022/08/20 02:48:10;;;;;;;23.80;17.52;;;18.00;99.90;;;;;;5089856;27;20126;-80
2022/08/20 02:50:36;;;;;;;10.98;9.93;;;18.00;99.90;;;;;;5103052;27;20089;-80
2022/08/20 02:53:02;;;;;;;19.60;14.05;;;17.90;99.90;;;;;;5093933;28;20563;-80
2022/08/20 02:55:28;;;;;;;18.13;13.15;;;17.90;99.90;;;;;;5103662;28;20040;-80
2022/08/20 02:58:00;;;;;;;14.43;11.27;;;17.90;99.90;;;;;;5097869;27;20108;-79
2022/08/20 03:00:30;;;;;;;13.75;12.52;;;17.80;99.90;;;;;;5079221;28;20225;-80
2022/08/20 03:02:55;;;;;;;17.25;13.45;;;17.80;99.90;;;;;;5116696;27;20047;-82
2022/08/20 03:05:22;;;;;;;15.15;13.00;;;17.80;99.90;;;;;;5113482;28;20085;-82
2022/08/20 03:07:52;;;;;;;12.93;11.30;;;17.80;99.90;;;;;;5082372;28;20051;-83
2022/08/20 03:10:28;;;;;;;25.80;19.50;;;17.80;99.90;;;;;;5105218;28;20044;-83
2022/08/20 03:12:54;;;;;;;21.98;17.35;;;17.80;99.90;;;;;;5079719;28;20124;-82
2022/08/20 03:15:19;;;;;;;33.83;19.50;;;17.70;99.90;;;;;;5100783;28;20093;-83
2022/08/20 03:17:46;;;;;;;15.57;13.43;;;17.70;99.90;;;;;;5098019;28;20458;-82
2022/08/20 03:20:13;;;;;;;30.38;19.60;;;17.70;99.90;;;;;;5092571;28;20062;-83
2022/08/20 03:22:39;;;;;;;15.57;13.07;;;17.60;99.90;;;;;;5097739;28;20044;-83
2022/08/20 03:25:08;;;;;;;24.60;17.30;;;17.60;99.90;;;;;;5073557;28;20035;-83
2022/08/20 03:27:34;;;;;;;40.75;23.92;;;17.60;99.90;;;;;;5106861;28;20493;-82
2022/08/20 03:30:00;;;;;;;20.45;16.25;;;17.60;99.90;;;;;;5114022;28;20099;-82
2022/08/20 03:32:26;;;;;;;11.25;10.15;;;17.60;99.90;;;;;;5071271;28;20090;-82
2022/08/20 03:34:51;;;;;;;12.60;10.68;;;17.50;99.90;;;;;;5069492;28;20690;-82
2022/08/20 03:37:17;;;;;;;26.45;18.52;;;17.50;99.90;;;;;;5113145;28;20039;-82
2022/08/20 03:39:43;;;;;;;14.38;12.90;;;17.50;99.90;;;;;;5081770;28;20048;-82
2022/08/20 03:42:09;;;;;;;15.15;13.07;;;17.50;99.90;;;;;;5085809;28;20492;-82
2022/08/20 03:44:38;;;;;;;22.33;16.98;;;17.50;99.90;;;;;;5069468;28;20410;-82
2022/08/20 03:47:06;;;;;;;19.10;14.45;;;17.50;99.90;;;;;;5082211;28;20120;-82
2022/08/20 03:49:38;;;;;;;16.17;14.55;;;17.50;99.90;;;;;;5089226;28;20143;-82
2022/08/20 03:52:04;;;;;;;14.25;12.90;;;17.50;99.90;;;;;;5107539;28;20047;-82
2022/08/20 03:54:30;;;;;;;15.57;14.07;;;17.50;99.90;;;;;;5057315;28;20039;-82
2022/08/20 03:56:56;;;;;;;31.23;19.23;;;17.50;99.90;;;;;;5104491;28;20077;-83
2022/08/20 03:59:22;;;;;;;13.45;12.10;;;17.50;99.90;;;;;;5081221;28;20035;-82
2022/08/20 04:01:48;;;;;;;16.48;14.20;;;17.50;99.90;;;;;;5071977;28;20062;-83
2022/08/20 04:04:14;;;;;;;33.05;20.13;;;17.50;99.90;;;;;;5100868;28;20148;-82
2022/08/20 04:06:40;;;;;;;20.67;15.02;;;17.50;99.90;;;;;;5106159;28;20043;-82
2022/08/20 04:09:06;;;;;;;20.15;15.90;;;17.40;99.90;;;;;;5092764;28;20088;-82
2022/08/20 04:11:32;;;;;;;18.80;15.05;;;17.40;99.90;;;;;;5077688;28;20043;-82
2022/08/20 04:13:58;;;;;;;25.67;18.70;;;17.40;99.90;;;;;;5091695;28;20047;-83
2022/08/20 04:16:24;;;;;;;13.60;12.15;;;17.40;99.90;;;;;;5078806;27;20039;-82
2022/08/20 04:18:50;;;;;;;12.70;11.40;;;17.40;99.90;;;;;;5100443;27;20114;-82
2022/08/20 04:21:16;;;;;;;12.73;10.30;;;17.40;99.90;;;;;;5094252;27;20042;-82
2022/08/20 04:23:41;;;;;;;15.63;12.85;;;17.40;99.90;;;;;;5109208;27;20049;-80
2022/08/20 04:26:07;;;;;;;18.92;15.45;;;17.30;99.90;;;;;;5101072;27;20898;-80
2022/08/20 04:28:34;;;;;;;12.38;11.07;;;17.30;99.90;;;;;;5104390;27;20043;-80
2022/08/20 04:31:00;;;;;;;21.00;15.73;;;17.30;99.90;;;;;;5103358;27;20036;-80
2022/08/20 04:33:29;;;;;;;19.30;13.48;;;17.20;99.90;;;;;;5099584;27;20052;-81
2022/08/20 04:35:59;;;;;;;28.70;17.80;;;17.30;99.90;;;;;;5120195;27;20058;-81
2022/08/20 04:38:25;;;;;;;14.95;13.25;;;17.30;99.90;;;;;;5096588;27;20051;-81
2022/08/20 04:40:57;;;;;;;19.52;14.60;;;17.30;99.90;;;;;;5091015;28;20050;-81
2022/08/20 04:43:34;;;;;;;12.68;11.10;;;17.30;99.90;;;;;;5107442;27;20505;-81
2022/08/20 04:46:22;;;;;;;17.55;12.32;;;17.30;99.90;;;;;;5112331;27;20081;-80
2022/08/20 04:48:50;;;;;;;16.08;12.63;;;17.20;99.90;;;;;;5090770;28;20191;-81
2022/08/20 04:51:17;;;;;;;15.45;12.18;;;17.20;99.90;;;;;;5074762;27;20039;-81
2022/08/20 04:53:43;;;;;;;14.77;11.60;;;17.20;99.90;;;;;;5107751;27;20051;-81
2022/08/20 04:56:11;;;;;;;12.52;11.25;;;17.20;99.90;;;;;;5073729;27;20439;-82
2022/08/20 04:58:38;;;;;;;18.38;13.20;;;17.10;99.90;;;;;;5100144;27;20097;-82
2022/08/20 05:01:09;;;;;;;13.48;10.45;;;17.10;99.90;;;;;;5123336;27;20050;-82
2022/08/20 05:03:37;;;;;;;13.68;11.43;;;17.10;99.90;;;;;;5106258;27;20122;-82
2022/08/20 05:06:05;;;;;;;16.17;10.50;;;17.10;99.90;;;;;;5088464;27;20040;-82
2022/08/20 05:08:32;;;;;;;13.45;11.20;;;17.10;99.90;;;;;;5108798;27;20110;-82
2022/08/20 05:10:58;;;;;;;18.15;11.45;;;17.10;99.90;;;;;;5122910;27;20051;-82
2022/08/20 05:13:25;;;;;;;17.20;11.93;;;17.10;99.90;;;;;;5128336;27;20563;-83
2022/08/20 05:15:51;;;;;;;14.00;10.70;;;17.10;99.90;;;;;;5122648;27;20040;-82
2022/08/20 05:18:22;;;;;;;15.00;10.60;;;17.10;99.90;;;;;;5099819;27;20087;-82
2022/08/20 05:20:48;;;;;;;16.70;10.45;;;17.00;99.90;;;;;;5120011;27;20156;-81
2022/08/20 05:23:16;;;;;;;14.13;9.32;;;17.00;99.90;;;;;;5092132;27;20054;-82
2022/08/20 05:25:44;;;;;;;16.77;9.52;;;17.00;99.90;;;;;;5106275;28;20128;-81
2022/08/20 05:28:16;;;;;;;17.30;12.27;;;16.90;99.90;;;;;;5112216;27;20035;-82
2022/08/20 05:30:44;;;;;;;15.95;9.70;;;16.90;99.90;;;;;;5117639;27;20040;-82
2022/08/20 05:33:18;;;;;;;11.73;7.65;;;16.90;99.90;;;;;;5123622;27;20035;-82
2022/08/20 05:35:46;;;;;;;10.15;8.57;;;16.90;99.90;;;;;;5104839;27;20090;-82
2022/08/20 05:38:16;;;;;;;15.82;10.93;;;16.90;99.90;;;;;;5091153;27;20047;-82
2022/08/20 05:40:46;;;;;;;11.57;7.53;;;16.90;99.90;;;;;;5101517;27;20126;-82
2022/08/20 05:43:23;;;;;;;11.85;7.30;;;16.90;99.90;;;;;;5106090;27;20048;-82
2022/08/20 05:45:52;;;;;;;17.20;10.25;;;16.90;99.90;;;;;;5121250;27;20066;-82
2022/08/20 05:48:22;;;;;;;16.67;9.23;;;16.90;99.90;;;;;;5092302;27;20458;-82
2022/08/20 05:50:49;;;;;;;14.25;8.57;;;16.90;99.90;;;;;;5106836;28;20112;-82
2022/08/20 05:53:17;;;;;;;12.07;9.45;;;16.90;99.90;;;;;;5123127;27;20080;-82
2022/08/20 05:55:46;;;;;;;13.20;8.40;;;16.90;99.90;;;;;;5088015;27;20058;-82
2022/08/20 05:58:19;;;;;;;13.32;9.43;;;17.00;99.90;;;;;;5116767;27;20122;-82
2022/08/20 06:00:46;;;;;;;17.05;9.70;;;17.00;99.90;;;;;;5092908;27;20046;-82
2022/08/20 06:05:56;;;;;;;14.73;9.32;;;17.00;99.90;;;;;;5102593;27;20048;-82
2022/08/20 06:08:23;;;;;;;16.48;9.65;;;17.00;99.90;;;;;;5102269;27;20310;-82
2022/08/20 06:10:49;;;;;;;15.85;10.70;;;17.00;99.90;;;;;;5097469;27;20494;-82
2022/08/20 06:13:15;;;;;;;9.27;8.02;;;17.10;99.90;;;;;;5088512;28;20040;-82
2022/08/20 06:15:41;;;;;;;10.80;8.18;;;17.10;99.90;;;;;;5108733;27;20050;-82
2022/08/20 06:18:08;;;;;;;24.90;13.23;;;17.20;99.90;;;;;;5101914;27;20043;-81
2022/08/20 06:20:38;;;;;;;12.25;9.32;;;17.30;99.90;;;;;;5114763;27;20439;-82
2022/08/20 06:23:04;;;;;;;17.75;9.68;;;17.30;99.90;;;;;;5092671;27;20059;-81
2022/08/20 06:25:31;;;;;;;14.35;8.55;;;17.40;99.90;;;;;;5095034;28;20538;-82
2022/08/20 06:27:56;;;;;;;17.25;10.07;;;17.40;99.90;;;;;;5107701;27;20046;-81
2022/08/20 06:30:22;;;;;;;11.02;7.82;;;17.50;99.90;;;;;;5101753;27;20046;-84
2022/08/20 06:32:49;;;;;;;13.30;6.93;;;17.50;99.90;;;;;;5084400;27;20094;-83
2022/08/20 06:35:15;;;;;;;12.68;6.55;;;17.50;99.90;;;;;;5102681;27;20104;-83
2022/08/20 06:37:44;;;;;;;11.85;7.57;;;17.50;99.90;;;;;;5109179;27;20051;-84
2022/08/20 06:40:18;;;;;;;10.80;7.35;;;17.50;99.90;;;;;;5085899;27;20038;-84
2022/08/20 06:42:44;;;;;;;11.23;6.22;;;17.60;99.90;;;;;;5120395;27;20050;-84
2022/08/20 06:45:15;;;;;;;9.55;5.32;;;17.50;99.90;;;;;;5097501;27;20383;-84
2022/08/20 06:47:43;;;;;;;15.05;6.68;;;17.50;99.90;;;;;;5103183;27;20086;-81
2022/08/20 06:50:12;;;;;;;12.02;5.85;;;17.50;99.90;;;;;;5104908;27;20030;-81
2022/08/20 06:52:45;;;;;;;9.13;5.60;;;17.60;99.90;;;;;;5097988;27;20430;-82
2022/08/20 06:55:14;;;;;;;11.48;5.35;;;17.70;99.90;;;;;;5088051;27;20054;-82
2022/08/20 06:57:42;;;;;;;8.93;4.80;;;17.70;99.90;;;;;;5106103;27;20130;-82
2022/08/20 07:00:13;;;;;;;11.38;5.35;;;17.70;99.90;;;;;;5099274;27;20112;-82
2022/08/20 07:02:39;;;;;;;12.13;5.80;;;17.80;99.90;;;;;;5096311;27;20543;-81
2022/08/20 07:05:06;;;;;;;12.15;5.90;;;17.90;99.90;;;;;;5119388;27;20126;-82
2022/08/20 07:07:33;;;;;;;10.05;3.95;;;17.90;99.90;;;;;;5102058;27;20468;-82
2022/08/20 07:10:10;;;;;;;10.00;3.95;;;17.90;99.90;;;;;;5115166;27;20049;-82
2022/08/20 07:12:36;;;;;;;8.93;4.18;;;18.00;99.90;;;;;;5099259;27;20050;-82
2022/08/20 07:15:08;;;;;;;9.30;3.75;;;18.00;99.90;;;;;;5068979;27;20039;-82
2022/08/20 07:17:34;;;;;;;8.95;3.13;;;18.10;99.90;;;;;;5115398;27;20028;-83
2022/08/20 07:20:09;;;;;;;9.65;3.17;;;18.10;99.90;;;;;;5086250;27;20846;-83
2022/08/20 07:22:38;;;;;;;12.30;3.70;;;18.20;99.90;;;;;;5101586;27;20043;-83
2022/08/20 07:25:07;;;;;;;8.93;2.42;;;18.30;99.90;;;;;;5103452;27;20042;-84
2022/08/20 07:27:34;;;;;;;8.25;2.72;;;18.30;99.90;;;;;;5120539;27;20046;-84
2022/08/20 07:32:47;;;;;;;7.95;2.30;;;18.40;99.90;;;;;;5106977;27;20766;-85
2022/08/20 07:35:15;;;;;;;8.40;2.25;;;18.50;99.90;;;;;;5087593;27;20058;-86
2022/08/20 07:37:45;;;;;;;9.43;2.15;;;18.60;99.90;;;;;;5104919;27;20412;-85
2022/08/20 07:40:16;;;;;;;9.13;2.42;;;18.80;99.90;;;;;;5108055;27;20444;-84
2022/08/20 07:42:42;;;;;;;5.45;1.50;;;19.00;99.90;;;;;;5115393;27;20050;-85
2022/08/20 07:45:10;;;;;;;9.60;2.05;;;19.10;99.90;;;;;;5080364;27;20126;-84
2022/08/20 07:47:38;;;;;;;7.57;1.70;;;19.20;99.90;;;;;;5105272;27;20046;-86
2022/08/20 07:50:05;;;;;;;7.20;2.35;;;19.20;99.90;;;;;;5104650;27;20102;-86
2022/08/20 07:52:34;;;;;;;8.27;1.95;;;19.30;99.90;;;;;;5107419;27;20035;-84
2022/08/20 07:55:06;;;;;;;8.32;1.70;;;19.40;99.90;;;;;;5107144;27;20043;-86
2022/08/20 07:57:31;;;;;;;8.77;2.00;;;19.50;99.90;;;;;;5124170;27;20031;-86
2022/08/20 07:59:59;;;;;;;6.38;1.42;;;19.60;99.90;;;;;;5107339;27;20047;-84
2022/08/20 08:02:28;;;;;;;8.57;1.77;;;19.60;99.90;;;;;;5110488;27;20036;-85
2022/08/20 08:04:57;;;;;;;6.50;1.42;;;19.70;99.90;;;;;;5119262;27;20091;-84
2022/08/20 08:07:25;;;;;;;7.32;1.80;;;19.80;99.90;;;;;;5092387;27;20039;-84
2022/08/20 08:09:51;;;;;;;6.45;1.48;;;19.80;99.90;;;;;;5117082;27;20047;-84
2022/08/20 08:12:18;;;;;;;5.53;1.55;;;19.90;99.90;;;;;;5121942;27;20683;-84
2022/08/20 08:14:46;;;;;;;6.30;1.63;;;20.10;99.90;;;;;;5130519;27;20050;-84
2022/08/20 08:17:15;;;;;;;4.70;1.20;;;20.10;99.90;;;;;;5105299;27;20045;-81
2022/08/20 08:19:47;;;;;;;6.87;1.87;;;20.20;99.90;;;;;;5102846;27;20099;-83
2022/08/20 08:22:16;;;;;;;6.35;1.40;;;20.40;99.90;;;;;;5108456;27;20042;-83
2022/08/20 08:24:43;;;;;;;5.45;1.30;;;20.50;99.90;;;;;;5102896;27;20067;-82
2022/08/20 08:27:10;;;;;;;8.02;1.58;;;20.60;99.90;;;;;;5103956;27;20709;-83
2022/08/20 08:29:39;;;;;;;5.88;1.83;;;20.70;99.90;;;;;;5127356;27;20078;-83
2022/08/20 08:32:08;;;;;;;5.78;1.48;;;20.80;99.90;;;;;;5108198;27;20035;-82
2022/08/20 08:34:38;;;;;;;10.35;1.77;;;20.80;99.90;;;;;;5085217;27;20707;-83
2022/08/20 08:37:04;;;;;;;;;;;20.90;99.90;;;;;;5109640;27;20059;-81
2022/08/20 08:39:32;;;;;;;4.55;1.27;;;21.00;99.90;;;;;;5090941;27;20366;-84
2022/08/20 08:41:59;;;;;;;6.68;1.45;;;21.00;99.90;;;;;;5108439;27;20656;-83
2022/08/20 08:44:29;;;;;;;4.95;1.15;;;21.00;99.90;;;;;;5096160;27;20057;-81
2022/08/20 08:47:31;;;;;;;3.92;1.25;;;20.90;99.90;;;;;;5101998;27;20520;-82
2022/08/20 08:50:00;;;;;;;6.30;1.35;;;21.00;99.90;;;;;;5107200;27;20067;-81
2022/08/20 08:52:36;;;;;;;5.65;1.45;;;21.10;99.90;;;;;;5108014;27;20047;-82
2022/08/20 08:55:10;;;;;;;6.18;1.10;;;21.20;99.90;;;;;;5106677;27;20490;-82
2022/08/20 08:57:40;;;;;;;6.13;1.40;;;21.40;99.90;;;;;;5111454;27;21036;-82
2022/08/20 09:00:14;;;;;;;6.03;1.23;;;21.50;99.90;;;;;;5096868;27;20574;-82
2022/08/20 09:03:07;;;;;;;5.35;1.10;;;21.70;99.90;;;;;;5104388;27;20516;-82
2022/08/20 09:05:49;;;;;;;6.20;1.30;;;21.90;99.90;;;;;;5120746;27;20084;-82
2022/08/20 09:08:18;;;;;;;5.95;1.48;;;22.00;99.90;;;;;;5120997;27;20050;-82
2022/08/20 09:10:45;;;;;;;7.03;1.53;;;22.10;99.90;;;;;;5093290;27;20046;-82
2022/08/20 09:13:11;;;;;;;4.93;1.15;;;22.20;99.90;;;;;;5077325;27;20111;-81
2022/08/20 09:15:37;;;;;;;5.85;1.67;;;22.30;99.90;;;;;;5107045;27;20186;-81
2022/08/20 09:18:03;;;;;;;5.00;1.40;;;22.40;99.90;;;;;;5103131;27;20039;-81
2022/08/20 09:20:29;;;;;;;4.88;1.10;;;22.40;99.90;;;;;;5088383;27;20046;-82
2022/08/20 09:22:55;;;;;;;5.47;1.25;;;22.50;99.90;;;;;;5107517;27;20041;-83
2022/08/20 09:25:21;;;;;;;6.57;1.13;;;22.60;99.90;;;;;;5106041;27;20034;-82
2022/08/20 09:27:47;;;;;;;5.00;1.42;;;22.50;99.90;;;;;;5100045;27;20031;-81
2022/08/20 09:30:14;;;;;;;5.43;1.33;;;22.50;99.90;;;;;;5106693;27;20562;-81
2022/08/20 09:32:41;;;;;;;7.50;1.20;;;22.60;99.90;;;;;;5103311;27;20061;-81
2022/08/20 09:35:08;;;;;;;5.20;1.25;;;22.60;99.90;;;;;;5108318;27;20051;-80
2022/08/20 09:37:35;;;;;;;6.32;1.50;;;22.70;99.00;;;;;;5086398;27;20050;-81
2022/08/20 09:40:05;;;;;;;4.72;1.20;;;22.70;99.90;;;;;;5105758;27;20494;-81
2022/08/20 09:42:38;;;;;;;6.40;1.40;;;22.70;99.50;;;;;;5085298;27;20565;-80
2022/08/20 09:45:05;;;;;;;4.45;1.10;;;22.70;99.90;;;;;;5100433;27;20047;-84
2022/08/20 09:47:31;;;;;;;4.55;1.10;;;22.70;99.90;;;;;;5117547;27;20039;-81
2022/08/20 09:49:57;;;;;;;7.07;1.35;;;22.90;99.90;;;;;;5107334;27;20035;-82
2022/08/20 09:52:27;;;;;;;5.68;1.38;;;23.00;99.90;;;;;;5098558;27;20043;-80
2022/08/20 09:54:57;;;;;;;3.78;0.80;;;23.20;99.90;;;;;;5098677;27;20183;-80
2022/08/20 09:57:24;;;;;;;4.90;1.13;;;23.30;99.90;;;;;;5102365;27;20505;-82
2022/08/20 09:59:58;;;;;;;4.70;1.00;;;23.50;99.90;;;;;;5117295;27;20042;-82
2022/08/20 10:02:24;;;;;;;6.97;1.30;;;23.50;94.50;;;;;;5104024;27;20046;-80
2022/08/20 10:04:50;;;;;;;5.95;1.20;;;23.40;95.40;;;;;;5118888;27;20050;-81
2022/08/20 10:07:16;;;;;;;4.65;1.30;;;23.40;96.40;;;;;;5103510;27;20068;-80
2022/08/20 10:09:42;;;;;;;4.82;1.25;;;23.40;94.80;;;;;;5084290;27;20094;-80
2022/08/20 10:12:08;;;;;;;6.50;1.50;;;23.30;94.80;;;;;;5088005;27;20126;-81
2022/08/20 10:14:34;;;;;;;5.00;1.00;;;23.10;96.00;;;;;;5099838;27;20191;-81
2022/08/20 10:17:01;;;;;;;7.28;1.48;;;22.90;96.40;;;;;;5116511;27;20090;-81
2022/08/20 10:19:29;;;;;;;5.18;1.13;;;23.00;98.10;;;;;;5113174;27;20035;-80
2022/08/20 10:21:54;;;;;;;5.10;1.10;;;23.00;98.40;;;;;;5102207;27;20035;-80
2022/08/20 10:24:21;;;;;;;5.80;0.93;;;23.20;99.60;;;;;;5113257;27;20043;-80
2022/08/20 10:26:48;;;;;;;3.92;0.88;;;23.40;98.50;;;;;;5096395;27;20129;-80
2022/08/20 10:29:14;;;;;;;4.53;1.10;;;23.50;97.80;;;;;;5100574;27;20035;-80
2022/08/20 10:31:40;;;;;;;5.57;1.25;;;23.60;96.10;;;;;;5107785;27;20050;-80
2022/08/20 10:34:06;;;;;;;8.55;1.08;;;23.60;95.40;;;;;;5117500;27;20043;-80
2022/08/20 10:36:32;;;;;;;5.88;1.20;;;23.50;94.80;;;;;;5067670;28;21092;-79
2022/08/20 10:38:58;;;;;;;4.43;1.05;;;23.60;92.30;;;;;;5058974;28;20052;-79
2022/08/20 10:41:24;;;;;;;4.00;1.08;;;23.80;95.80;;;;;;5065183;28;20372;-79
2022/08/20 10:43:50;;;;;;;5.68;1.20;;;24.00;96.30;;;;;;5065264;28;20040;-80
2022/08/20 10:46:16;;;;;;;5.80;1.08;;;24.20;96.30;;;;;;5065350;28;20043;-80
2022/08/20 10:48:42;;;;;;;4.80;1.20;;;24.40;93.80;;;;;;5066983;28;20496;-81
2022/08/20 10:51:08;;;;;;;5.90;1.00;;;24.40;91.20;;;;;;5057365;28;20071;-80
2022/08/20 10:53:34;;;;;;;5.70;1.10;;;24.20;84.30;;;;;;5064926;28;20494;-80
2022/08/20 10:56:00;;;;;;;6.20;1.20;;;23.90;87.50;;;;;;5067516;28;20173;-80
2022/08/20 10:58:30;;;;;;;4.82;1.13;;;23.80;91.00;;;;;;5078882;28;20141;-80
2022/08/20 11:00:55;;;;;;;4.93;1.00;;;23.80;90.20;;;;;;5093243;28;20040;-80
2022/08/20 11:03:21;;;;;;;5.95;1.40;;;23.60;91.40;;;;;;5069541;28;20054;-80
2022/08/20 11:05:47;;;;;;;5.47;1.23;;;23.50;92.20;;;;;;5072936;28;20519;-79
2022/08/20 11:08:13;;;;;;;5.45;1.45;;;23.50;90.40;;;;;;5104096;28;20073;-79
2022/08/20 11:10:39;;;;;;;4.80;1.05;;;23.60;92.50;;;;;;5068261;28;20040;-79
2022/08/20 11:13:10;;;;;;;6.20;1.70;;;23.70;94.50;;;;;;5075707;28;20539;-82
2022/08/20 11:15:40;;;;;;;6.43;2.08;;;23.80;93.70;;;;;;5057961;28;20060;-79
2022/08/20 11:18:09;;;;;;;4.38;1.23;;;23.90;92.20;;;;;;5070564;28;20863;-80
2022/08/20 11:20:38;;;;;;;5.88;1.42;;;23.90;86.20;;;;;;5081555;28;20054;-80
2022/08/20 11:23:04;;;;;;;7.22;1.25;;;23.90;80.60;;;;;;5076881;28;20079;-80
2022/08/20 11:25:30;;;;;;;6.45;1.80;;;23.90;79.10;;;;;;5076455;28;20076;-79
2022/08/20 11:27:57;;;;;;;7.10;1.52;;;24.00;81.20;;;;;;5083101;28;20094;-81
2022/08/20 11:30:34;;;;;;;6.25;1.40;;;24.10;85.20;;;;;;5079273;28;20040;-80
2022/08/20 11:33:01;;;;;;;5.70;1.35;;;24.20;88.30;;;;;;5097618;28;20050;-80
2022/08/20 11:35:28;;;;;;;7.07;1.48;;;24.40;88.80;;;;;;5082094;27;20036;-79
2022/08/20 11:37:56;;;;;;;4.80;1.35;;;24.50;88.90;;;;;;5120172;27;20530;-80
2022/08/20 11:40:23;;;;;;;6.45;1.30;;;24.70;85.30;;;;;;5104630;27;20080;-84
2022/08/20 11:42:49;;;;;;;4.88;1.63;;;24.80;72.70;;;;;;5104087;27;20039;-81
2022/08/20 11:45:15;;;;;;;5.65;1.42;;;24.80;71.50;;;;;;5100952;27;20572;-82
2022/08/20 11:47:41;;;;;;;4.38;1.42;;;24.90;72.10;;;;;;5092469;27;20043;-82
2022/08/20 11:50:11;;;;;;;5.78;1.48;;;25.00;73.30;;;;;;5100429;27;20046;-82
2022/08/20 11:52:39;;;;;;;8.88;1.75;;;25.10;81.60;;;;;;5120559;27;20154;-81
2022/08/20 11:55:08;;;;;;;8.23;1.45;;;25.20;81.90;;;;;;5116084;27;20039;-80
2022/08/20 11:57:36;;;;;;;8.15;1.25;;;25.30;73.50;;;;;;5105911;27;20043;-79
2022/08/20 12:00:07;;;;;;;5.40;1.30;;;25.30;73.40;;;;;;5121481;27;21358;-80
2022/08/20 12:02:33;;;;;;;4.68;1.08;;;25.40;78.10;;;;;;5108183;27;20043;-79
2022/08/20 12:04:59;;;;;;;5.05;1.00;;;25.40;74.70;;;;;;5079235;27;20051;-79
2022/08/20 12:07:26;;;;;;;6.30;1.40;;;25.30;75.40;;;;;;5119838;27;20693;-79
2022/08/20 12:09:52;;;;;;;4.18;1.25;;;25.10;78.10;;;;;;5118584;27;20073;-79
2022/08/20 12:12:21;;;;;;;3.97;1.40;;;25.00;74.10;;;;;;5107201;27;20043;-79
2022/08/20 12:14:47;;;;;;;5.65;1.67;;;25.00;74.10;;;;;;5118232;27;20363;-79
2022/08/20 12:17:18;;;;;;;4.95;1.60;;;25.10;72.80;;;;;;5077751;27;20038;-80
2022/08/20 12:19:45;;;;;;;4.85;1.10;;;25.10;68.20;;;;;;5102461;27;20035;-80
2022/08/20 12:22:10;;;;;;;5.45;1.30;;;24.90;73.00;;;;;;5105692;27;20638;-79
2022/08/20 12:24:37;;;;;;;5.82;1.40;;;24.80;75.60;;;;;;5120678;27;20092;-80
2022/08/20 12:27:18;;;;;;;5.65;1.27;;;24.90;72.80;;;;;;5084781;27;20099;-81
2022/08/20 12:29:46;;;;;;;6.40;1.50;;;25.10;72.60;;;;;;5122513;27;20053;-80
2022/08/20 12:32:13;;;;;;;4.57;1.10;;;25.30;74.00;;;;;;5120723;27;20047;-81
2022/08/20 12:34:41;;;;;;;7.72;1.63;;;25.30;73.70;;;;;;5117427;27;20489;-82
2022/08/20 12:37:12;;;;;;;6.70;1.60;;;25.30;73.60;;;;;;5095215;27;20051;-82
2022/08/20 12:39:40;;;;;;;5.95;1.45;;;25.30;70.10;;;;;;5097669;27;20512;-82
2022/08/20 12:42:06;;;;;;;4.53;1.23;;;25.10;70.60;;;;;;5114003;27;20619;-80
2022/08/20 12:44:33;;;;;;;6.38;1.35;;;24.90;73.60;;;;;;5086289;27;20046;-81
2022/08/20 12:47:23;;;;;;;5.95;1.30;;;24.70;74.80;;;;;;5118047;27;20076;-81
2022/08/20 12:50:01;;;;;;;5.28;1.42;;;24.50;76.50;;;;;;5122844;27;20534;-81
2022/08/20 12:52:28;;;;;;;5.82;1.40;;;24.50;83.70;;;;;;5123542;27;20049;-81
2022/08/20 12:54:59;;;;;;;4.80;1.38;;;24.70;89.10;;;;;;5113299;27;20812;-81